Timeline UpdatesTrip UpdatesNews PostsPvt PostsTravel TipsAdmin PostsConv PostsFollowed PostsChat RequestsBlog PostsPNR Posts

Disclaimer
Search
 
 
Fri Aug 22, 2014 07:28:54 ISTHomeTrainsΣChainsAtlasPNRForumGalleryNewsFAQTripsMembersLoginFeedback
No Recent News for this Train
Other Trains in the News **new
Latest...
05213 Darbhanga- Anand Vihar Holi Special train will depart from Darbhanga at 10.30 a.m. on30.03.2013 & 02.04.2013 (02 trips) to reach Anand Vihar at 12.10 noon the next day
Thu Mar 21, 2013 (08:23PM)
⇐ Return Journey: Train# 05214

05213/Darbhanga - Delhi Anand Vihar (T.) Holi Special

TRAIN IS CANCELLED
Change Departure Station:
Change Arrival Station:
Post a Train Travel TipPost a Train Travel Tip **new
Post a Comment/Question/Picture/VideoPost a Comment/Question/Picture/Video
Pantry/Catering
✕ NO Pantry Car
✕ NO Catering
Loco/Rake Reversals
ALD/Allahabad Junction (10); SPJ/Samastipur Junction (9);
RSA - Rake Sharing
Rake/Coach Composition
one AC 2 Tier, one AC 3 Tier, five Sleeper Class, eleven General Class, & two Second Class cum luggage van coaches
Loco
News    PNR    Forum    Time-Table    Availability    Fare Chart    Map    Arr/Dep History    Trips    Gallery    ΣChains    X/O    Timeline    
Travel Time: 2h 25m    2 halts    Distance: 113 km    Avg Speed: 46 km/hr
Type: Mail/Express
Zone: ECR/East Central
Departs @ 13:00
Platform# ???
  T   S
Muzaffarpur Junction/MFP 
Arrives @ 15:25
Platform# ???
  T   S
Chhapra Junction/CPR 

2 halts. 22 intermediate Stations between Muzaffarpur Junction and Chhapra Junction

Hide intermediate Stations  

#CodeStation NameX/OArrivesAvgDepartsAvgHaltPFDay#KmSpeedElevZoneAddress
1DBGDarbhanga Junction (5)  -10:30---1-89.63054mECRDarbhanga, Bihar
1.1LSILaheria Sarai (1)  10:40-10:40-  1-84.5 3052mECRDarbhanga, Bihar
1.2TLWAThalwara  10:49-10:49-  1-80.1 3056mECRDarbhanga, Bihar
1.3HYTHaiaghat  11:01-11:01-  1-74.1 3051mECRDarbhanga, Bihar
1.4RBZRambhaddarpur  11:11-11:11-  1-69.1 3051mECRSamastipur, Bihar
1.5KSPKishanpur  11:24-11:24-  1-62.4 3051mECRSamastipur, Bihar
1.6MKPRMuktapur (1)  11:37-11:37-  1-56.1 3053mECRSamastipur, Bihar
2SPJSamastipur Junction (9)11:45-12:05-20m--1-52.16355mECRSamastipur, Bihar
2.1KPGMKarpurigram (3)  12:11-12:11-  1-45.9 6351mECRState Highway 49, Bihar
2.2KRBPKhudiram B Pusa  12:18-12:18-  1-38.5 6352mECRDistt. Samastipur, Bihar
2.3VBHVishnupur Bathua Halt  12:22-12:22-  1-34.8 6355mECRTajpur - Garhia - Pusa Road, Bihar
2.4DUBHDubaha  12:25-12:25-  1-31.2 6355mECRDubha Station, Bihar
2.5DOLDholi (2)  12:31-12:31-  1-25.1 63 ECRDistt. Muzaffarpur, Bihar
2.6SIHOSiho  12:37-12:37-  1-18.3 6353mECRNational Highway 28, Bihar
2.7SLTSilaut  12:45-12:45-  1-10.5 6357mECRMuzaffarpur, Bihar
2.8NRPANarayanpur Anant (3)  12:50-12:50-  1-4.8 6356mECRMuzaffarpur, Bihar
3MFP»Muzaffarpur Junction (6)»  12:55-13:00-5m--10.06557mECRMuzaffarpur, Bihar
3.1RDRam Dayalu Nagar (3)  13:06-13:06-  16.0 6556mECRMuzaffarpur, Bihar
3.2TURTurki (2)  13:13-13:13-  113.8 6555mECRTurki, Bihar
3.3KHIKurhani (2)  13:19-13:19-  120.1 6556mECRKurhani, Bihar
3.4GRLGoraul (2)  13:24-13:24-  125.9 6557mECRVAISHALI, Bihar
3.5BNPTBenipatti Pirapur (1)  13:26-13:26-  127.8 6555mECRGhojaul Rd, Bihar
3.6BNRBhagwanpur (2)  13:32-13:32-  134.2 6560mECRBhagwanpur, Bihar
3.7BTHLBithauli (1)  13:36-13:36-  138.8 6558mECRVaishali, Bihar
3.8SAISarai (1)  13:40-13:40-  143.2 6554mECRVaishali, Bihar
3.9GWHGhoshawar (1)  13:46-13:46-  149.3 6554mECRDaulatpur Deoria urf Daulatpur, Bihar
4HJPHajipur Junction (3)  13:50-13:55-5m--153.83355mECR06224-272230, Bihar
5SEESonpur Junction (4)  14:05-14:10-5m--159.34356mECRSaran, Bihar
5.1PMUParmanandpur (2)  14:19-14:19-  166.0 4356mECRNational Highway 19, Bihar
5.2NYONayagaon (2)  14:26-14:26-  170.6 4353mECRNayagaon Sarai, Bihar
5.3STLRSitalpur (2)  14:36-14:36-  178.3 4357mECRSitalpur, Bihar
5.4DGADighwara (2)  14:42-14:42-  182.5 4360mECR06158-281240, Bihar
5.5AABHAmbika Bhawani Halt (1)  14:48-14:48-  186.4 4359mECRNH 19, Bihar
5.6ATNRAwatarnagar (2)  14:50-14:50-  188.3 4356mECRNH 19, Bihar
5.7PPDAPanchpatia Deoria Halt (1)  14:53-14:53-  190.5 4357mECRNH 19, Bihar
5.8BAGLBaragopal (2)  14:57-14:57-  193.3 4357mECRSH 46, Bihar
5.9DRIDumri Juara (2)  15:03-15:03-  197.4 4357mECRSaran, Bihar
5.10GJHGoldinganj (2)  15:09-15:09-  1102.1 4358mECRChapra Patna Highway, Bihar
5.11CIChhapra Kacheri (3)  15:22-15:22-  1111.2 4357mNERChhapra, Bihar
6CPR•Chhapra Junction (6)•  15:25-15:30-5m--1113.47358mNERDistt: Saran, Bihar
6.1TKVRTeknewas (2)  15:34-15:34-  1117.7 7358mNERSaran, Bihar
6.2KPSKopa Samhota (2)  15:39-15:39-  1124.0 7369mNERKopa Samhota Station Rd, Bihar
6.3DDPDaudpur (2)  15:46-15:46-  1132.7 7359mNERChhapra, Bihar
6.4EKMAEkma (3)  15:53-15:53-  1141.3 7364mNERSaran, Bihar
6.5MHRNMahendranath Halt (2)  15:57-15:57-  1146.6 7363mNERMahendrana, Uttar Pradesh
6.6CWChainwa (2)  15:59-15:59-  1148.6 7363mNERSiwan, Bihar
6.7DDADuraundha Junction (3)  16:05-16:05-  1156.8 7364mNERDistt: Siwan, Bihar
6.8PCKPachrukhi (2)  16:13-16:13-  1166.3 7367mNERPachrukhi, Bihar
7SVSiwan Junction (4)  16:20-16:25-5m--1174.64970mNERSiwan, Bihar
7.1ZRDEJiradei (2)  16:38-16:38-  1184.9 4969mNERSiwan, Bihar
7.2KYWKarchhue  16:44-16:44-  1190.4 4970mNERState Highway 47, Bihar
7.3MWMairwa (2)  16:51-16:51-  1195.9 4973mNERMairwa, Bihar
7.4BTKBankata (2)  16:59-16:59-  1202.4 4973mNERDeoria, Uttar Pradesh
7.5BHTRBhatpar Rani (2)  17:09-17:09-  1210.4 4973mNERDeoria, Uttar Pradesh
7.6NNPRNonapar  17:19-17:19-  1218.6 4976mNERSalempur Mairwa Rd, Uttar Pradesh
7.7BTTBhatni Junction (5)  17:25-17:25-  1223.3 4973mNERDeoria, Uttar Pradesh
7.8NRANunkhar (2)  17:34-17:34-  1230.6 4975mNERBaikunthpur, Uttar Pradesh
7.9AHLRAhalyapur  17:43-17:43-  1238.0 4981mNERDeoria, Uttar Pradesh
8DEOSDeoria Sadar (3)  17:50-17:55-5m--1244.12779mNERDeoria- 274001, Uttar Pradesh
8.1BALRBaitalpur (2)  18:10-18:10-  1250.7 2782mNERPin- 274201, Uttar Pradesh
8.2GBGauri Bazar (2)  18:29-18:29-  1259.1 2782mNERDistrict Deoria- Pincode- 274202, Uttar Pradesh
8.3CCChauri Chaura (2)  18:50-18:50-  1268.8 2784mNERGorakhpur- PinCode:- 273201, Uttar Pradesh
8.4SANRSardarnagar  19:02-19:02-  1274.1 2782mNERGorakhpur-Deoria Road, Uttar Pradesh
8.5KHMKusmhi (2)  19:16-19:16-  1280.1 2783mNERGorakhpur, Uttar Pradesh
8.6GKCGorakhpur Cantt. (3)  19:37-19:37-  1289.5 2785mNERGorakhpur-273001, Uttar Pradesh
9GKPGorakhpur Junction (10)  19:45-19:55-10m--1293.26984mNERGorakhpur 273001, Uttar Pradesh
9.1DMGDomingarh (2)  19:59-19:59-  1297.3 6980mNERGorakhpur- 273004, Uttar Pradesh
9.2JTBJagatbela (2)  20:04-20:04-  1304.0 6978mNERDistt Gorakhpur- 273015, Uttar Pradesh
9.3SWASahjanwa (2)  20:10-20:10-  1310.4 6980mNERGorakhpur - 273209, Uttar Pradesh
9.4SIPRSihapar Halt (2)  20:14-20:14-  1315.3 6980mNERGorakhpur, Uttar Pradesh
9.5MHHMaghar (3)  20:17-20:17-  1318.6 6983mNERNH 28. Distt- SantKabirNagar- 272173, Uttar Pradesh
9.6KLDKhalilabad (3)  20:24-20:24-  1327.1 6986mNERKhalilabad- 272175, Uttar Pradesh
9.7CRVChureb (2)  20:31-20:31-  1334.9 6988mNERDistrict- Khalilabad, Uttar Pradesh
9.8MNDMunderwa (2)  20:38-20:38-  1342.4 6989mNERNational Highway 28, Uttar Pradesh
9.9ORWOrwara (2)  20:43-20:43-  1349.0 6991mNERDistrict- BASTI, Uttar Pradesh
10BSTBasti (4)  20:50-20:55-5m--1356.76290mNERBasti 272001, Uttar Pradesh
10.1GOVRGovindnagar (2)  21:01-21:01-  1363.0 6293mNERPin-272002, Uttar Pradesh
10.2THTinich (2)  21:09-21:09-  1371.4 6295mNERDistrict- Basti, Uttar Pradesh
10.3GAURGaur (2)  21:17-21:17-  1379.6 6296mNERDistrict-Basti, Uttar Pradesh
10.4BVBabhnan (2)  21:25-21:25-  1387.5 62101mNERDistrict- Basti, Uttar Pradesh
10.5PATIParsa Tiwari (2)  21:30-21:30-  1393.0 6298mNERChhapaiya Rd, Uttar Pradesh
10.6BNGYBahman Jyotia (2)  21:32-21:32-  1395.5 62100mNERGonda, Uttar Pradesh
10.7SNCSwami Narayan Chhapia (2)  21:36-21:36-  1398.8 62100mNERS Narayan Chpla, Uttar Pradesh
10.8MSWMaskanwa (2)  21:40-21:40-  1403.2 62103mNERChhapaiya Rd, Uttar Pradesh
10.9LKNRLakhpat Nagar (2)  21:48-21:48-  1412.0 62102mNERMankapur, Uttar Pradesh
10.10MURMankapur Junction (5)  21:53-21:53-  1417.2 62104mNERDistrict Gonda, Uttar Pradesh
10.11JLHIJhilahi (2)  21:59-21:59-  1423.8 62102mNERSH 9, Uttar Pradesh
10.12MOTGMotiganj  22:06-22:06-  1430.1 62111mNERGonda, Uttar Pradesh
10.13BRCKBarua Chak (2)  22:13-22:13-  1437.4 62107mNERBaruachak, Uttar Pradesh
11GDGonda Junction (3)  22:20-22:25-5m--1445.162110mNERGonda 271001, Uttar Pradesh
11.1GDKGonda Kachahri (3)  22:30-22:30-  1450.0 62110mNERGonda, Uttar Pradesh
11.2KTHLKathola (2)  22:36-22:36-  1456.9 62106mNERGonda, Uttar Pradesh
11.3MIRMaijapur (2)  22:42-22:42-  1462.7 62108mNERGonda, Uttar Pradesh
11.4KSRKasturi (2)  22:47-22:47-  1468.2 62108mNERkasturi Gonda, Uttar Pradesh
11.5CLJColonelGanj (2)  22:53-22:53-  1474.0 62108mNERGonda, Uttar Pradesh
11.6SUJSarju (2)  23:01-23:01-  1481.7 62109mNERGonda, Uttar Pradesh
11.7JLDJarwal Road (2)  23:10-23:10-  1491.2 62112mNERBehraich, Uttar Pradesh
11.8GHTGhaghara Ghat (2)  23:14-23:14-  1495.4 62107mNERBahraich, Uttar Pradesh
11.9CKGChowka Ghat (2)  23:19-23:19-  1501.0 62107mNERBarabanki, Uttar Pradesh
11.10BUWBurhwal Junction (3)  23:25-23:25-  1507.3 62119mNERBarabanki, Uttar Pradesh
11.11SDAMSundhiamau  23:36-23:36-  1518.3 62123mNERMDR 11C, Uttar Pradesh
11.12TSFTahsil Fatehpur  23:46-23:46-  1528.9 62124mNERFatehpur, Uttar Pradesh
11.13PPEPaintepur  23:56-23:56-  1538.8 62130mNERPahla Saraiya, Uttar Pradesh
11.14MGPAMunda Gopal Ash  23:59-23:59-  1541.5 62127mNERMDR 77C, Uttar Pradesh
11.15MMBMahmudabad Avadh  00:02-00:02-  2544.8 62131mNERMahmudabad, Uttar Pradesh
11.16BBPRBabupur  00:07-00:07-  2550.4 62127mNERMahmudabad, Uttar Pradesh
11.17SYUSarayan  00:12-00:12-  2555.5 62131mNERMDR 79C, Uttar Pradesh
11.18SKLPShankarpur  00:19-00:19-  2562.8 62134mNERMDR 30C, Uttar Pradesh
11.19BVNBiswan  00:26-00:26-  2570.3 62133mNERBiswan, Uttar Pradesh
11.20RAMRRamalpur  00:32-00:32-  2576.5 62136mNERMauzuddinpur, Uttar Pradesh
11.21PSNParsendi  00:40-00:40-  2584.4 62139mNERSarya Sani, Uttar Pradesh
11.22TKURTappa Khajuria Halt  00:47-00:47-  2591.0 62141mNERSH 30, Uttar Pradesh
11.23STPSitapur  01:00-01:00-  2604.8 62141mNERSitapur, Uttar Pradesh
12SCCSitapur Cantt. (2)  01:00-01:05-5m--2604.931141mNRSitapur, Uttar Pradesh
12.1STRKSitapur Cutchery  01:08-01:08-  2606.5 31135mNRSitapur, Uttar Pradesh
12.2SPCSitapur City Junction  01:13-01:13-  2609.0 31140mNRSitapur, Uttar Pradesh
12.3KATAKatili  01:30-01:30-  2617.4 31143mNRNere Kalan, Uttar Pradesh
12.4HMPHempur  01:37-01:37-  2621.0 31144mNRNational Highway 24, Uttar Pradesh
12.5UDXUrdauli  01:48-01:48-  2626.8 31148mNRUrdauli, Uttar Pradesh
12.6MAHOMaholi  01:56-01:56-  2630.8 31152mNRMaholi, Uttar Pradesh
12.7LCNLalpur Chandra Halt  02:02-02:02-  2633.8 31146mNRChandra, Uttar Pradesh
12.8NERINeri  02:14-02:14-  2640.0 31149mNRNH 24, Uttar Pradesh
12.9MINJMaikalGanj  02:26-02:26-  2646.4 31149mNRNational Highway 24, Uttar Pradesh
12.10JKHJahanikhera  02:47-02:47-  2657.0 31154mNRHannpasigawan, Uttar Pradesh
12.11MZNMahmudpur Saraiyan Halt  02:52-02:52-  2659.7 31153mNRDel Pandarwa, Uttar Pradesh
12.12JBGJung Bahadurganj  03:01-03:01-  2664.0 31152mNRNational Highway 24, Uttar Pradesh
12.13LNQLakhnauria  03:10-03:10-  2668.7 31152mNRLakhnauria, Uttar Pradesh
12.14UCHUnchaulia  03:23-03:23-  2675.3 31152mNRUncholia, Uttar Pradesh
12.15BRTABartara  03:34-03:34-  2681.2 31155mNRBartara, Uttar Pradesh
12.16ROZARoza Junction (4)  03:48-03:48-  2688.3 31156mNRShahjahanpur, Uttar Pradesh
12.17SXKShahjahanpur Court  03:59-03:59-  2693.9 31160mNRShahjahanpur, Uttar Pradesh
12.18SPNShahjahanpur Junction (3)  04:01-04:01-  2694.9 31156mNRShahjahanpur, Uttar Pradesh
12.19BTRABanthra  04:17-04:17-  2703.3 31154mNRNH 24, Uttar Pradesh
12.20BHDHBahadurpur Halt  04:28-04:28-  2708.9 31154mNRNH 24, Uttar Pradesh
12.21TLHTilhar  04:36-04:36-  2713.0 31163mNRTilhar, Uttar Pradesh
12.22MILAMilakpur Halt  04:43-04:43-  2716.7 31158mNRDhanela, Uttar Pradesh
12.23MKMiranpur Katra  04:55-04:55-  2722.8 31162mNRShahjahanpur, Uttar Pradesh
12.24KSRKKasrak Halt  04:56-04:56-  2723.0 31162mNRKatra, Uttar Pradesh
12.25BLPUBilpur  05:09-05:09-  2730.0 31161mNRFatehganj, Uttar Pradesh
12.26TSATisua  05:23-05:23-  2737.0 31165mNRNational Highway 24, Uttar Pradesh
12.27PMRPitambarpur  05:40-05:40-  2745.5 31171mNRPitambarpur, Uttar Pradesh
12.28RYSRasuriya  05:58-05:58-  2755.0 31174mNRNH 24, Uttar Pradesh
12.29CHTIChanehti Junction  06:11-06:11-  2761.6 31168mNRBareilly, Uttar Pradesh
12.30BEBareilly Junction (4)  06:19-06:19-  2765.4 31174mNRBareilly, Uttar Pradesh
12.31BCBareilly City (4)  06:23-06:23-  2767.9 31171mNERBareilly, Uttar Pradesh
12.32CBJClutterbuckGanj  06:34-06:34-  2773.3 31172mNRBareilly, Uttar Pradesh
12.33PKRAParsa Khera  06:44-06:44-  2778.3 31170mNRNH 24, Uttar Pradesh
12.34BTOBhitaura  06:54-06:54-  2783.6 31173mNRFatehganj Pashchimi, Uttar Pradesh
12.35DANDhaneta  07:06-07:06-  2789.9 31174mNRNH 24, Uttar Pradesh
12.36NRSNagaria Sadat  07:20-07:20-  2797.0 31177mNRNagaria Sadat, Uttar Pradesh
12.37MILMilak  07:37-07:37-  2805.3 31180mNRMilak, Uttar Pradesh
12.38DUNDuganpur  07:48-07:48-  2811.2 31180mNRNH 24, Uttar Pradesh
12.39DAMDhamora  07:59-07:59-  2816.6 31183mNRNH 24, Uttar Pradesh
12.40SARShahzad Nagar  08:09-08:09-  2822.0 31186mNRNH 24, Uttar Pradesh
12.41RMURampur Junction (3)  08:22-08:22-  2828.4 31190mNRRampur, Uttar Pradesh
12.42MPHMundha Pande  08:39-08:39-  2837.1 31191mNRNH 24, Uttar Pradesh
12.43DLPDalpatpur  08:51-08:51-  2843.5 31195mNRNH-24, Uttar Pradesh
12.44KGFEKathghar East  09:05-09:05-  2850.4 31194mNRJama Masjid Bridge Road, Uttar Pradesh
12.45KGFRKathghar Right Bank  09:05-09:05-  2850.7 31199mNRMoradabad, Uttar Pradesh
12.46KGFKathghar  09:08-09:08-  2852.0 31199mNRMoradabad, Uttar Pradesh
13MBMoradabad Junction (7)  09:15-09:25-10m--2855.756201mNRMoradabad, Uttar Pradesh
13.1LPBLodipur Bishanpur  09:38-09:38-  2868.0 56202mNRBishanpur, Uttar Pradesh
13.2LDPLodipur Bishnupur (2)  09:38-09:38-  2868.1 56200mNRHarthala Station Rd, Uttar Pradesh
13.3HKPHakimpur (2)  09:43-09:43-  2872.4 56204mNRSH 78, Uttar Pradesh
13.4CKLTChak Kali Lait (2)  09:47-09:47-  2876.0 56211mNRSH 78, Uttar Pradesh
13.5KIVKaialsa (2)  09:51-09:51-  2879.8 56211mNRSH 78, Uttar Pradesh
13.6AMROAmroha (3)  09:58-09:58-  2886.2 56217mNRAmroha, Uttar Pradesh
13.7KFPRKafurpur  10:10-10:10-  2897.8 56215mNRRajabpur, Uttar Pradesh
13.8MHHRMahesra (2)  10:13-10:13-  2900.8 56214mNRNH 24, Uttar Pradesh
13.9GJLGajraula Junction (4)  10:22-10:22-  2909.1 56211mNRGujraula, Uttar Pradesh
13.10KHEKankather  10:31-10:31-  2916.8 56204mNRNational Highway 24, Uttar Pradesh
13.11GGBGarhmuktesar Bridge (1)  10:37-10:37-  2923.0 56202mNRNH-24, Uttar Pradesh
13.12GMSGarhmuktesar (3)  10:45-10:45-  2929.9 56218mNRGarhmukteshwar, Uttar Pradesh
13.13SMBLSimbhooli (2)  10:55-10:55-  2939.3 56217mNRSimbhauli, Uttar Pradesh
13.14SKHRSikhera Mb Halt  10:59-10:59-  2942.8 56215mNRRajpur, Uttar Pradesh
13.15QXRKuchesar Road  11:02-11:02-  2946.4 56216mNRHapur Rd, Uttar Pradesh
13.16BBOBabugarh  11:08-11:08-  2952.0 56211mNRGhaziabad, Uttar Pradesh
13.17HPUHapur Junction (4)  11:17-11:17-  2959.7 56214mNRHapur Jn., Uttar Pradesh
13.18KKMBKastla Kasmabad Halt (2)  11:24-11:24-  2966.4 56214mNRHapur Rd, Uttar Pradesh
13.19PKWPilkhua (3)  11:29-11:29-  2970.9 56218mNRPilkhuwa, Uttar Pradesh
13.20DSDasna (1)  11:42-11:42-  2983.2 56216mNRHapur Rd, Uttar Pradesh
13.21AKNRAdhyatmik Nagar (2)  11:45-11:45-  2985.8 56213mNRAdhyatmik, Uttar Pradesh
13.22MFHMahrauli (3)  11:48-11:48-  2989.2 56218mNRGhaziabad, Uttar Pradesh
13.23GZBGhaziabad Junction (6)  11:56-11:56-  2996.4 56217mNRGhaziabad, Uttar Pradesh
13.24SBBSahibabad Junction (5)  12:04-12:04-  21003.7 56209mNRGhaziabad, Uttar Pradesh
13.25DSBPDelhi Shahdara B Panel  12:06-12:06-  21006.0 56206mNRGhaziabad, Uttar Pradesh
13.26CNJChander Nagar (2)  12:08-12:08-  21007.4 56206mNRSahibabad Industrial Area Site 4, Uttar Pradesh
14ANVTDelhi Anand Vihar Terminal (3)  12:10----21009.4-208mNRGhazipur Road, Delhi NCT
Scroll to Top
Scroll to Bottom